createdAt,value
2022-09-07T00:00:38.202Z,21.41
2022-09-07T00:01:38.197Z,21.42
2022-09-07T00:02:38.216Z,21.42
2022-09-07T00:03:38.159Z,21.41
2022-09-07T00:04:38.178Z,21.39
2022-09-07T00:05:38.138Z,21.38
2022-09-07T00:06:38.140Z,21.35
2022-09-07T00:07:38.139Z,21.34
2022-09-07T00:08:38.081Z,21.30
2022-09-07T00:09:38.073Z,21.30
2022-09-07T00:10:38.069Z,21.32
2022-09-07T00:11:38.052Z,21.27
2022-09-07T00:12:38.058Z,21.26
2022-09-07T00:13:38.025Z,21.24
2022-09-07T00:14:38.015Z,21.23
2022-09-07T00:15:38.001Z,21.24
2022-09-07T00:16:38.075Z,21.21
2022-09-07T00:17:38.024Z,21.23
2022-09-07T00:18:40.336Z,21.24
2022-09-07T00:19:37.990Z,21.24
2022-09-07T00:20:37.936Z,21.27
2022-09-07T00:21:37.966Z,21.30
2022-09-07T00:22:37.911Z,21.30
2022-09-07T00:23:37.924Z,21.34
2022-09-07T00:24:37.892Z,21.34
2022-09-07T00:25:37.866Z,21.34
2022-09-07T00:26:37.862Z,21.36
2022-09-07T00:27:37.851Z,21.36
2022-09-07T00:28:37.931Z,21.35
2022-09-07T00:29:37.815Z,21.36
2022-09-07T00:30:37.832Z,21.38
2022-09-07T00:31:37.845Z,21.38
2022-09-07T00:32:37.815Z,21.39
2022-09-07T00:33:37.761Z,21.35
2022-09-07T00:34:37.757Z,21.30
2022-09-07T00:35:37.740Z,21.26
2022-09-07T00:36:37.740Z,21.19
2022-09-07T00:37:37.750Z,21.14
2022-09-07T00:38:37.736Z,21.11
2022-09-07T00:39:37.721Z,21.08
2022-09-07T00:40:37.701Z,21.02
2022-09-07T00:41:37.663Z,20.98
2022-09-07T00:42:37.679Z,20.95
2022-09-07T00:43:37.632Z,20.93
2022-09-07T00:44:37.622Z,20.91
2022-09-07T00:45:37.604Z,20.90
2022-09-07T00:46:37.660Z,20.89
2022-09-07T00:47:37.582Z,20.84
2022-09-07T00:48:37.572Z,20.87
2022-09-07T00:49:37.549Z,20.81
2022-09-07T00:50:37.558Z,20.79
2022-09-07T00:51:37.538Z,20.79
2022-09-07T00:54:03.027Z,20.81
2022-09-07T00:55:01.884Z,20.76
2022-09-07T00:56:01.886Z,20.71
2022-09-07T00:57:01.901Z,20.68
2022-09-07T00:58:01.860Z,20.68
2022-09-07T00:59:01.830Z,20.66
2022-09-07T01:00:01.827Z,20.64
2022-09-07T01:01:24.098Z,20.59
2022-09-07T01:02:01.898Z,20.59
2022-09-07T01:03:01.945Z,20.58
2022-09-07T01:04:01.769Z,20.56
2022-09-07T01:12:38.001Z,20.35
2022-09-07T01:13:36.864Z,20.31
2022-09-07T01:14:36.888Z,20.25
2022-09-07T01:15:36.795Z,20.25
2022-09-07T01:16:36.754Z,20.25
2022-09-07T01:17:36.756Z,20.21
2022-09-07T01:18:36.754Z,20.18
2022-09-07T01:19:36.752Z,20.15
2022-09-07T01:20:36.711Z,20.13
2022-09-07T01:21:36.700Z,20.10
2022-09-07T01:22:39.775Z,20.10
2022-09-07T01:23:36.677Z,20.10
2022-09-07T01:24:36.647Z,20.08
2022-09-07T01:25:36.686Z,20.06
2022-09-07T01:26:36.630Z,20.05
2022-09-07T01:27:36.622Z,20.03
2022-09-07T01:28:36.668Z,20.02
2022-09-07T01:29:36.590Z,20.00
2022-09-07T01:30:36.615Z,20.00
2022-09-07T01:31:36.717Z,19.97
2022-09-07T01:32:36.873Z,19.98
2022-09-07T01:33:58.109Z,19.93
2022-09-07T01:35:01.436Z,19.88
2022-09-07T01:35:36.544Z,19.87
2022-09-07T01:36:36.561Z,19.86
2022-09-07T01:37:36.506Z,19.86
2022-09-07T01:38:52.808Z,19.84
2022-09-07T01:39:36.557Z,19.83
2022-09-07T01:40:36.477Z,19.79
2022-09-07T01:51:32.123Z,19.75
2022-09-07T01:52:33.203Z,19.70
2022-09-07T01:53:33.057Z,19.72
2022-09-07T01:54:33.064Z,19.69
2022-09-07T01:55:33.042Z,19.70
2022-09-07T01:56:54.014Z,19.69
2022-09-07T02:00:02.009Z,19.63
2022-09-07T02:01:02.994Z,19.60
2022-09-07T02:02:03.045Z,19.60
2022-09-07T02:03:03.032Z,19.54
2022-09-07T02:04:05.238Z,19.57
2022-09-07T02:05:02.966Z,19.57
2022-09-07T02:06:02.947Z,19.55
2022-09-07T02:07:02.922Z,19.57
2022-09-07T02:08:02.907Z,19.55
2022-09-07T02:09:02.958Z,19.54
2022-09-07T02:10:02.883Z,19.50
2022-09-07T02:11:02.912Z,19.48
2022-09-07T02:12:02.846Z,19.50
2022-09-07T02:13:02.870Z,19.51
2022-09-07T02:14:02.812Z,19.50
2022-09-07T02:15:02.814Z,19.48
2022-09-07T02:16:02.853Z,19.47
2022-09-07T02:17:02.784Z,19.47
2022-09-07T02:18:02.768Z,19.47
2022-09-07T02:19:02.743Z,19.46
2022-09-07T02:20:02.802Z,19.42
2022-09-07T02:21:02.734Z,19.42
2022-09-07T02:22:02.759Z,19.38
2022-09-07T02:23:02.690Z,19.35
2022-09-07T02:24:02.687Z,19.33
2022-09-07T02:25:02.689Z,19.35
2022-09-07T02:26:02.683Z,19.32
2022-09-07T02:27:02.681Z,19.32
2022-09-07T02:28:02.706Z,19.33
2022-09-07T02:29:02.662Z,19.31
2022-09-07T02:30:02.652Z,19.31
2022-09-07T02:31:02.632Z,19.29
2022-09-07T02:32:02.576Z,19.29
2022-09-07T02:33:02.651Z,19.25
2022-09-07T02:34:02.538Z,19.23
2022-09-07T02:35:02.535Z,19.21
2022-09-07T02:36:02.553Z,19.21
2022-09-07T02:37:02.494Z,19.18
2022-09-07T02:38:02.515Z,19.14
2022-09-07T02:39:02.480Z,19.10
2022-09-07T02:40:02.580Z,19.13
2022-09-07T02:41:02.460Z,19.10
2022-09-07T02:42:02.443Z,19.08
2022-09-07T02:43:02.434Z,19.06
2022-09-07T02:44:02.418Z,19.06
2022-09-07T02:45:02.464Z,19.08
2022-09-07T02:46:02.444Z,19.05
2022-09-07T02:47:02.387Z,19.02
2022-09-07T02:48:02.434Z,18.98
2022-09-07T02:49:02.350Z,18.95
2022-09-07T02:50:02.355Z,18.99
2022-09-07T02:51:02.362Z,19.01
2022-09-07T02:52:02.320Z,18.98
2022-09-07T02:53:02.290Z,19.01
2022-09-07T02:54:02.283Z,19.01
2022-09-07T02:55:02.301Z,19.02
2022-09-07T02:56:02.278Z,18.99
2022-09-07T02:57:02.276Z,19.01
2022-09-07T02:58:02.262Z,19.01
2022-09-07T02:59:02.212Z,19.01
2022-09-07T03:00:02.212Z,19.02
2022-09-07T03:01:02.254Z,19.01
2022-09-07T03:02:02.184Z,19.01
2022-09-07T03:03:02.161Z,18.99
2022-09-07T03:04:02.143Z,18.98
2022-09-07T03:05:02.208Z,18.97
2022-09-07T03:06:02.153Z,18.94
2022-09-07T03:07:02.115Z,18.95
2022-09-07T03:08:02.104Z,18.91
2022-09-07T03:09:02.143Z,18.90
2022-09-07T03:10:02.086Z,18.84
2022-09-07T03:11:02.077Z,18.79
2022-09-07T03:12:02.056Z,18.73
2022-09-07T03:13:02.031Z,18.72
2022-09-07T03:14:02.039Z,18.68
2022-09-07T03:15:02.041Z,18.68
2022-09-07T03:16:02.112Z,18.67
2022-09-07T03:17:01.983Z,18.68
2022-09-07T03:18:01.979Z,18.68
2022-09-07T03:19:01.965Z,18.70
2022-09-07T03:20:01.940Z,18.67
2022-09-07T03:21:01.922Z,18.65
2022-09-07T03:22:01.927Z,18.65
2022-09-07T03:23:01.904Z,18.59
2022-09-07T03:24:01.901Z,18.61
2022-09-07T03:25:01.925Z,18.57
2022-09-07T03:26:08.435Z,18.55
2022-09-07T03:27:01.846Z,18.55
2022-09-07T03:28:01.835Z,18.52
2022-09-07T03:29:01.805Z,18.49
2022-09-07T03:30:01.809Z,18.47
2022-09-07T03:31:01.929Z,18.46
2022-09-07T03:32:01.845Z,18.47
2022-09-07T03:33:01.803Z,18.42
2022-09-07T03:34:01.760Z,18.40
2022-09-07T03:35:01.739Z,18.40
2022-09-07T03:36:01.774Z,18.37
2022-09-07T03:37:01.707Z,18.31
2022-09-07T03:38:01.762Z,18.31
2022-09-07T03:39:01.742Z,18.31
2022-09-07T03:40:01.877Z,18.28
2022-09-07T03:41:01.721Z,18.24
2022-09-07T03:42:01.715Z,18.24
2022-09-07T03:43:01.689Z,18.22
2022-09-07T03:44:22.605Z,18.21
2022-09-07T03:45:01.661Z,18.21
2022-09-07T03:46:01.653Z,18.21
2022-09-07T03:47:01.635Z,18.18
2022-09-07T03:48:01.625Z,18.18
2022-09-07T03:49:01.544Z,18.17
2022-09-07T03:50:01.601Z,18.12
2022-09-07T03:51:01.537Z,18.12
2022-09-07T03:52:01.518Z,18.09
2022-09-07T03:53:01.547Z,18.12
2022-09-07T03:54:01.530Z,18.10
2022-09-07T03:55:01.480Z,18.09
2022-09-07T03:56:28.039Z,18.06
2022-09-07T03:57:01.442Z,18.04
2022-09-07T03:58:01.470Z,18.04
2022-09-07T03:59:01.436Z,18.04
2022-09-07T04:00:01.415Z,18.04
2022-09-07T04:01:01.500Z,18.06
2022-09-07T04:02:01.492Z,18.06
2022-09-07T04:03:01.402Z,18.03
2022-09-07T04:04:02.523Z,18.03
2022-09-07T04:05:01.380Z,18.03
2022-09-07T04:06:01.399Z,18.02
2022-09-07T04:07:01.314Z,17.99
2022-09-07T04:08:01.315Z,18.02
2022-09-07T04:09:01.325Z,18.00
2022-09-07T04:10:01.277Z,18.00
2022-09-07T04:11:01.273Z,17.97
2022-09-07T04:12:01.283Z,17.95
2022-09-07T04:13:01.274Z,17.97
2022-09-07T04:14:01.221Z,17.95
2022-09-07T04:15:01.203Z,17.94
2022-09-07T04:16:01.238Z,17.95
2022-09-07T04:17:01.309Z,17.95
2022-09-07T04:18:01.188Z,17.94
2022-09-07T04:19:01.189Z,17.94
2022-09-07T04:20:01.212Z,17.94
2022-09-07T04:21:01.128Z,17.92
2022-09-07T04:22:01.129Z,17.92
2022-09-07T04:23:01.115Z,17.95
2022-09-07T04:24:01.085Z,17.89
2022-09-07T04:25:01.090Z,17.92
2022-09-07T04:26:01.057Z,17.91
2022-09-07T04:27:01.078Z,17.91
2022-09-07T04:28:01.076Z,17.91
2022-09-07T04:29:01.024Z,17.94
2022-09-07T04:30:01.087Z,17.92
2022-09-07T04:31:04.199Z,17.89
2022-09-07T04:32:01.017Z,17.88
2022-09-07T04:33:01.011Z,17.84
2022-09-07T04:34:00.969Z,17.82
2022-09-07T04:35:01.073Z,17.79
2022-09-07T04:36:00.943Z,17.78
2022-09-07T04:37:01.007Z,17.76
2022-09-07T04:38:00.901Z,17.73
2022-09-07T04:39:00.928Z,17.74
2022-09-07T04:40:21.877Z,17.74
2022-09-07T04:41:03.022Z,17.71
2022-09-07T04:42:00.857Z,17.71
2022-09-07T04:43:00.848Z,17.69
2022-09-07T04:44:00.846Z,17.70
2022-09-07T04:45:00.817Z,17.69
2022-09-07T04:46:00.900Z,17.66
2022-09-07T04:47:00.836Z,17.64
2022-09-07T04:48:00.786Z,17.62
2022-09-07T04:49:00.813Z,17.62
2022-09-07T04:50:00.819Z,17.57
2022-09-07T04:51:05.258Z,17.57
2022-09-07T04:52:00.721Z,17.59
2022-09-07T04:53:00.701Z,17.62
2022-09-07T04:54:00.721Z,17.63
2022-09-07T04:55:00.715Z,17.62
2022-09-07T04:56:00.689Z,17.54
2022-09-07T04:57:00.675Z,17.57
2022-09-07T04:58:00.698Z,17.54
2022-09-07T04:59:00.640Z,17.55
2022-09-07T05:00:00.612Z,17.55
2022-09-07T05:01:00.657Z,17.59
2022-09-07T05:02:00.720Z,17.57
2022-09-07T05:03:00.599Z,17.62
2022-09-07T05:04:00.617Z,17.59
2022-09-07T05:05:02.719Z,17.63
2022-09-07T05:06:00.550Z,17.59
2022-09-07T05:07:00.575Z,17.57
2022-09-07T05:08:00.499Z,17.62
2022-09-07T05:09:00.511Z,17.59
2022-09-07T05:10:00.509Z,17.62
2022-09-07T05:11:00.519Z,17.59
2022-09-07T05:12:00.485Z,17.64
2022-09-07T05:13:00.434Z,17.64
2022-09-07T05:14:00.534Z,17.64
2022-09-07T05:15:00.432Z,17.64
2022-09-07T05:16:00.408Z,17.64
2022-09-07T05:17:00.453Z,17.64
2022-09-07T05:18:00.417Z,17.66
2022-09-07T05:19:00.366Z,17.69
2022-09-07T05:20:00.434Z,17.67
2022-09-07T05:21:00.343Z,17.71
2022-09-07T05:22:00.359Z,17.70
2022-09-07T05:23:00.425Z,17.70
2022-09-07T05:24:00.343Z,17.70
2022-09-07T05:25:00.299Z,17.71
2022-09-07T05:26:00.295Z,17.71
2022-09-07T05:27:00.281Z,17.73
2022-09-07T05:28:00.275Z,17.73
2022-09-07T05:31:21.215Z,17.76
2022-09-07T05:32:00.187Z,17.78
2022-09-07T05:33:00.324Z,17.78
2022-09-07T05:35:00.150Z,17.79
2022-09-07T05:36:00.140Z,17.79
2022-09-07T05:37:00.151Z,17.81
2022-09-07T05:38:00.121Z,17.82
2022-09-07T05:39:00.140Z,17.87
2022-09-07T05:40:00.304Z,17.85
2022-09-07T05:41:00.109Z,17.88
2022-09-07T05:42:00.097Z,17.89
2022-09-07T05:43:00.083Z,17.92
2022-09-07T05:45:00.069Z,17.91
2022-09-07T05:46:00.068Z,17.95
2022-09-07T05:47:00.035Z,17.94
2022-09-07T05:48:00.045Z,17.95
2022-09-07T05:49:00.016Z,17.94
2022-09-07T05:49:59.985Z,17.92
2022-09-07T05:51:00.028Z,17.94
2022-09-07T05:51:59.971Z,17.91
2022-09-07T05:52:59.939Z,17.89
2022-09-07T05:53:59.911Z,17.94
2022-09-07T05:55:28.415Z,17.94
2022-09-07T05:56:02.022Z,17.95
2022-09-07T05:56:59.928Z,17.91
2022-09-07T05:57:59.847Z,17.89
2022-09-07T05:58:59.846Z,17.91
2022-09-07T05:59:59.822Z,17.91
2022-09-07T06:00:59.864Z,17.92
2022-09-07T06:01:59.930Z,17.92
2022-09-07T06:02:59.907Z,17.97
2022-09-07T06:03:59.812Z,17.95
2022-09-07T06:04:59.786Z,18.00
2022-09-07T06:05:59.778Z,18.00
2022-09-07T06:07:20.551Z,18.04
2022-09-07T06:07:59.797Z,18.07
2022-09-07T06:08:59.726Z,18.09
2022-09-07T06:10:59.755Z,18.15
2022-09-07T06:11:59.658Z,18.21
2022-09-07T06:12:59.685Z,18.27
2022-09-07T06:13:59.715Z,18.28
2022-09-07T06:14:59.631Z,18.34
2022-09-07T06:15:59.763Z,18.36
2022-09-07T06:16:59.681Z,18.39
2022-09-07T06:17:59.617Z,18.42
2022-09-07T06:18:59.625Z,18.44
2022-09-07T06:19:59.590Z,18.50
2022-09-07T06:20:59.579Z,18.54
2022-09-07T06:21:59.558Z,18.54
2022-09-07T06:22:59.565Z,18.57
2022-09-07T06:23:59.566Z,18.62
2022-09-07T06:24:59.550Z,18.68
2022-09-07T06:25:59.507Z,18.72
2022-09-07T06:26:59.519Z,18.77
2022-09-07T06:27:59.475Z,18.79
2022-09-07T06:28:59.501Z,18.70
2022-09-07T06:29:59.434Z,18.68
2022-09-07T06:30:59.476Z,18.73
2022-09-07T06:32:59.426Z,18.76
2022-09-07T06:33:59.429Z,18.83
2022-09-07T06:34:59.539Z,18.86
2022-09-07T06:35:59.461Z,18.95
2022-09-07T06:36:59.367Z,19.01
2022-09-07T06:37:59.319Z,19.05
2022-09-07T06:38:59.322Z,19.08
2022-09-07T06:39:59.317Z,19.10
2022-09-07T06:42:00.692Z,19.11
2022-09-07T06:42:59.261Z,19.13
2022-09-07T06:43:59.894Z,19.15
2022-09-07T06:44:59.239Z,19.14
2022-09-07T06:47:04.840Z,19.14
2022-09-07T06:47:59.207Z,19.13
2022-09-07T06:48:59.189Z,19.15
2022-09-07T06:49:59.198Z,19.17
2022-09-07T06:50:59.175Z,19.14
2022-09-07T06:51:59.158Z,19.18
2022-09-07T06:55:00.931Z,19.24
2022-09-07T06:55:59.146Z,19.25
2022-09-07T06:56:59.064Z,19.32
2022-09-07T06:57:59.060Z,19.32
2022-09-07T06:58:59.072Z,19.36
2022-09-07T06:59:59.037Z,19.36
2022-09-07T07:00:59.088Z,19.40
2022-09-07T07:01:59.012Z,19.43
2022-09-07T07:02:59.057Z,19.46
2022-09-07T07:03:59.003Z,19.48
2022-09-07T07:04:58.983Z,19.51
2022-09-07T07:05:58.974Z,19.50
2022-09-07T07:06:58.950Z,19.55
2022-09-07T07:07:58.973Z,19.61
2022-09-07T07:08:58.968Z,19.61
2022-09-07T07:09:58.915Z,19.58
2022-09-07T07:10:58.917Z,19.60
2022-09-07T07:15:07.236Z,19.69
2022-09-07T07:15:50.088Z,19.73
2022-09-07T07:17:10.148Z,19.78
2022-09-07T07:17:56.073Z,19.80
2022-09-07T07:18:49.797Z,19.86
2022-09-07T07:19:52.084Z,19.86
2022-09-07T07:20:48.939Z,19.88
2022-09-07T07:22:10.898Z,19.88
2022-09-07T07:22:48.964Z,19.86
2022-09-07T07:23:48.937Z,19.84
2022-09-07T07:24:48.933Z,19.87
2022-09-07T07:25:48.879Z,19.87
2022-09-07T07:26:48.870Z,19.86
2022-09-07T07:27:48.870Z,19.88
2022-09-07T07:29:06.310Z,19.87
2022-09-07T07:29:48.836Z,19.87
2022-09-07T07:30:47.867Z,19.87
2022-09-07T07:31:48.786Z,19.93
2022-09-07T07:32:48.784Z,19.95
2022-09-07T07:33:48.810Z,20.03
2022-09-07T07:34:48.782Z,20.10
2022-09-07T07:42:22.804Z,20.66
2022-09-07T07:43:17.911Z,20.74
2022-09-07T07:52:50.569Z,20.84
2022-09-07T07:53:48.930Z,20.86
2022-09-07T07:54:48.948Z,20.91
2022-09-07T07:56:11.037Z,20.98
2022-09-07T07:56:48.888Z,21.06
2022-09-07T07:57:48.912Z,21.13
2022-09-07T08:09:26.840Z,21.05
2022-09-07T08:10:25.565Z,21.06
2022-09-07T08:11:25.511Z,21.02
2022-09-07T08:12:29.859Z,20.87
2022-09-07T08:13:25.719Z,20.84
2022-09-07T08:14:25.473Z,20.83
2022-09-07T08:15:25.487Z,20.83
2022-09-07T08:16:25.596Z,20.84
2022-09-07T08:17:25.670Z,20.87
2022-09-07T08:18:25.449Z,20.89
2022-09-07T08:19:25.437Z,20.99
2022-09-07T08:20:25.602Z,21.05
2022-09-07T08:21:25.390Z,21.11
2022-09-07T08:22:25.423Z,21.16
